sensor_id;sensor_type;location;lat;lon;timestamp;pressure;altitude;pressure_sealevel;temperature;humidity
59487;BME280;45298;54.918;73.504;2022-08-21T00:02:22;100606.53;;;9.27;86.54
59487;BME280;45298;54.918;73.504;2022-08-21T00:04:53;100629.75;;;9.40;86.43
59487;BME280;45298;54.918;73.504;2022-08-21T00:07:24;100613.03;;;9.39;86.42
59487;BME280;45298;54.918;73.504;2022-08-21T00:09:54;100570.69;;;9.20;86.45
59487;BME280;45298;54.918;73.504;2022-08-21T00:12:23;100605.56;;;9.47;86.17
59487;BME280;45298;54.918;73.504;2022-08-21T00:14:52;100611.41;;;9.54;86.56
59487;BME280;45298;54.918;73.504;2022-08-21T00:17:25;100570.72;;;9.37;86.51
59487;BME280;45298;54.918;73.504;2022-08-21T00:19:54;100476.34;;;8.82;86.23
59487;BME280;45298;54.918;73.504;2022-08-21T00:22:23;100629.53;;;9.81;86.53
59487;BME280;45298;54.918;73.504;2022-08-21T00:24:52;100588.22;;;9.59;86.48
59487;BME280;45298;54.918;73.504;2022-08-21T00:27:21;100608.78;;;9.72;86.98
59487;BME280;45298;54.918;73.504;2022-08-21T00:29:51;100605.84;;;9.78;86.71
59487;BME280;45298;54.918;73.504;2022-08-21T00:32:24;100610.84;;;9.84;86.80
59487;BME280;45298;54.918;73.504;2022-08-21T00:34:54;100628.84;;;9.95;86.45
59487;BME280;45298;54.918;73.504;2022-08-21T00:37:24;100559.72;;;9.64;86.88
59487;BME280;45298;54.918;73.504;2022-08-21T00:39:57;100587.69;;;9.88;86.65
59487;BME280;45298;54.918;73.504;2022-08-21T00:42:27;100561.72;;;9.77;86.94
59487;BME280;45298;54.918;73.504;2022-08-21T00:44:57;100629.09;;;10.25;86.57
59487;BME280;45298;54.918;73.504;2022-08-21T00:47:29;100628.00;;;10.30;86.98
59487;BME280;45298;54.918;73.504;2022-08-21T00:49:58;100639.97;;;10.38;86.83
59487;BME280;45298;54.918;73.504;2022-08-21T00:52:30;100597.44;;;10.22;86.93
59487;BME280;45298;54.918;73.504;2022-08-21T00:55:01;100629.88;;;10.45;86.53
59487;BME280;45298;54.918;73.504;2022-08-21T00:57:36;100614.13;;;10.42;86.21
59487;BME280;45298;54.918;73.504;2022-08-21T01:00:11;100610.44;;;10.45;86.33
59487;BME280;45298;54.918;73.504;2022-08-21T01:02:41;100622.22;;;10.56;86.43
59487;BME280;45298;54.918;73.504;2022-08-21T01:05:12;100628.75;;;10.67;86.42
59487;BME280;45298;54.918;73.504;2022-08-21T01:07:42;100612.28;;;10.60;86.49
59487;BME280;45298;54.918;73.504;2022-08-21T01:10:12;100619.50;;;10.74;86.12
59487;BME280;45298;54.918;73.504;2022-08-21T01:12:55;100620.81;;;10.83;86.15
59487;BME280;45298;54.918;73.504;2022-08-21T01:15:27;100634.13;;;10.99;86.03
59487;BME280;45298;54.918;73.504;2022-08-21T01:18:02;100619.03;;;10.99;86.12
59487;BME280;45298;54.918;73.504;2022-08-21T01:20:31;100625.41;;;11.13;86.49
59487;BME280;45298;54.918;73.504;2022-08-21T01:23:02;100542.66;;;10.72;85.94
59487;BME280;45298;54.918;73.504;2022-08-21T01:25:32;100565.09;;;10.99;86.09
59487;BME280;45298;54.918;73.504;2022-08-21T01:28:07;100605.19;;;11.42;86.12
59487;BME280;45298;54.918;73.504;2022-08-21T01:30:39;100616.66;;;11.59;84.98
59487;BME280;45298;54.918;73.504;2022-08-21T01:33:09;100606.34;;;11.69;84.66
59487;BME280;45298;54.918;73.504;2022-08-21T01:35:38;100607.44;;;11.81;84.93
59487;BME280;45298;54.918;73.504;2022-08-21T01:38:07;100557.13;;;11.77;85.11
59487;BME280;45298;54.918;73.504;2022-08-21T01:40:36;100621.50;;;12.73;83.48
59487;BME280;45298;54.918;73.504;2022-08-21T01:43:05;100613.09;;;13.22;81.15
59487;BME280;45298;54.918;73.504;2022-08-21T01:45:34;100610.88;;;13.29;80.45
59487;BME280;45298;54.918;73.504;2022-08-21T01:48:03;100589.13;;;13.22;80.92
59487;BME280;45298;54.918;73.504;2022-08-21T01:50:32;100617.25;;;13.26;81.76
59487;BME280;45298;54.918;73.504;2022-08-21T01:53:01;100594.56;;;13.06;82.49
59487;BME280;45298;54.918;73.504;2022-08-21T01:55:30;100597.41;;;13.03;82.26
59487;BME280;45298;54.918;73.504;2022-08-21T01:57:59;100569.94;;;12.88;82.49
59487;BME280;45298;54.918;73.504;2022-08-21T02:00:28;100538.41;;;12.67;82.82
59487;BME280;45298;54.918;73.504;2022-08-21T02:02:57;100609.09;;;13.15;82.51
59487;BME280;45298;54.918;73.504;2022-08-21T02:05:25;100622.00;;;13.36;81.59
59487;BME280;45298;54.918;73.504;2022-08-21T02:07:55;100598.31;;;13.31;81.54
59487;BME280;45298;54.918;73.504;2022-08-21T02:10:28;100606.75;;;13.38;82.12
59487;BME280;45298;54.918;73.504;2022-08-21T02:12:58;100592.56;;;13.37;81.92
59487;BME280;45298;54.918;73.504;2022-08-21T02:15:29;100574.63;;;13.41;81.22
59487;BME280;45298;54.918;73.504;2022-08-21T02:18:00;100610.41;;;14.04;80.58
59487;BME280;45298;54.918;73.504;2022-08-21T02:20:42;100562.50;;;14.68;79.03
59487;BME280;45298;54.918;73.504;2022-08-21T02:23:11;100598.94;;;15.56;75.90
59487;BME280;45298;54.918;73.504;2022-08-21T02:25:41;100621.97;;;15.94;74.82
59487;BME280;45298;54.918;73.504;2022-08-21T02:28:12;100602.41;;;15.81;74.96
59487;BME280;45298;54.918;73.504;2022-08-21T02:30:45;100605.72;;;15.84;74.23
59487;BME280;45298;54.918;73.504;2022-08-21T02:33:15;100601.53;;;15.69;74.93
59487;BME280;45298;54.918;73.504;2022-08-21T02:35:45;100603.81;;;15.62;74.08
59487;BME280;45298;54.918;73.504;2022-08-21T02:38:18;100600.13;;;15.52;73.19
59487;BME280;45298;54.918;73.504;2022-08-21T02:40:48;100593.50;;;15.45;73.59
59487;BME280;45298;54.918;73.504;2022-08-21T02:43:19;100600.56;;;15.46;74.33
59487;BME280;45298;54.918;73.504;2022-08-21T02:45:49;100553.97;;;15.13;74.09
59487;BME280;45298;54.918;73.504;2022-08-21T02:48:21;100610.28;;;15.47;74.27
59487;BME280;45298;54.918;73.504;2022-08-21T02:51:00;100592.53;;;15.46;73.62
59487;BME280;45298;54.918;73.504;2022-08-21T02:53:29;100611.03;;;15.97;73.42
59487;BME280;45298;54.918;73.504;2022-08-21T02:56:00;100577.31;;;16.42;72.20
59487;BME280;45298;54.918;73.504;2022-08-21T02:58:33;100520.59;;;16.25;70.91
59487;BME280;45298;54.918;73.504;2022-08-21T03:01:02;100585.13;;;16.56;70.52
59487;BME280;45298;54.918;73.504;2022-08-21T03:03:32;100594.00;;;16.45;70.35
59487;BME280;45298;54.918;73.504;2022-08-21T03:06:04;100608.97;;;16.37;71.82
59487;BME280;45298;54.918;73.504;2022-08-21T03:08:34;100576.28;;;16.09;71.74
59487;BME280;45298;54.918;73.504;2022-08-21T03:11:03;100598.06;;;16.15;71.98
59487;BME280;45298;54.918;73.504;2022-08-21T03:13:34;100599.03;;;16.14;72.69
59487;BME280;45298;54.918;73.504;2022-08-21T03:16:02;100592.94;;;16.12;73.15
59487;BME280;45298;54.918;73.504;2022-08-21T03:18:36;100621.47;;;16.36;72.56
59487;BME280;45298;54.918;73.504;2022-08-21T03:21:06;100599.19;;;16.24;71.58
59487;BME280;45298;54.918;73.504;2022-08-21T03:23:35;100593.59;;;16.16;71.86
59487;BME280;45298;54.918;73.504;2022-08-21T03:26:04;100601.13;;;16.22;71.97
59487;BME280;45298;54.918;73.504;2022-08-21T03:28:34;100535.03;;;15.64;71.96
59487;BME280;45298;54.918;73.504;2022-08-21T03:31:03;100603.25;;;15.94;72.76
59487;BME280;45298;54.918;73.504;2022-08-21T03:33:31;100619.56;;;16.02;72.95
59487;BME280;45298;54.918;73.504;2022-08-21T03:36:04;100617.28;;;15.85;73.59
59487;BME280;45298;54.918;73.504;2022-08-21T03:38:35;100612.72;;;15.74;73.98
59487;BME280;45298;54.918;73.504;2022-08-21T03:41:05;100616.72;;;15.68;73.60
59487;BME280;45298;54.918;73.504;2022-08-21T03:43:35;100602.44;;;15.56;74.13
59487;BME280;45298;54.918;73.504;2022-08-21T03:46:04;100605.25;;;15.55;74.06
59487;BME280;45298;54.918;73.504;2022-08-21T03:48:35;100638.69;;;15.61;74.67
59487;BME280;45298;54.918;73.504;2022-08-21T03:51:04;100614.00;;;15.57;74.52
59487;BME280;45298;54.918;73.504;2022-08-21T03:53:36;100596.75;;;15.37;75.17
59487;BME280;45298;54.918;73.504;2022-08-21T03:56:05;100616.50;;;15.47;74.72
59487;BME280;45298;54.918;73.504;2022-08-21T03:58:34;100632.19;;;15.52;75.20
59487;BME280;45298;54.918;73.504;2022-08-21T04:01:03;100591.56;;;15.22;75.62
59487;BME280;45298;54.918;73.504;2022-08-21T04:03:35;100595.72;;;15.26;75.76
59487;BME280;45298;54.918;73.504;2022-08-21T04:06:04;100615.59;;;15.35;75.94
59487;BME280;45298;54.918;73.504;2022-08-21T04:08:34;100623.06;;;15.30;76.07
59487;BME280;45298;54.918;73.504;2022-08-21T04:11:03;100611.97;;;15.23;76.02
59487;BME280;45298;54.918;73.504;2022-08-21T04:13:32;100617.94;;;15.27;76.19
59487;BME280;45298;54.918;73.504;2022-08-21T04:16:09;100642.81;;;15.40;76.81
59487;BME280;45298;54.918;73.504;2022-08-21T04:18:38;100624.56;;;15.34;77.06
59487;BME280;45298;54.918;73.504;2022-08-21T04:21:09;100621.56;;;15.39;76.67
59487;BME280;45298;54.918;73.504;2022-08-21T04:23:39;100629.22;;;15.44;77.04
59487;BME280;45298;54.918;73.504;2022-08-21T04:26:08;100625.19;;;15.38;76.76
59487;BME280;45298;54.918;73.504;2022-08-21T04:28:37;100636.50;;;15.41;76.77
59487;BME280;45298;54.918;73.504;2022-08-21T04:31:06;100605.78;;;15.23;76.86
59487;BME280;45298;54.918;73.504;2022-08-21T04:33:34;100624.16;;;15.28;77.10
59487;BME280;45298;54.918;73.504;2022-08-21T04:36:04;100644.69;;;15.27;77.75
59487;BME280;45298;54.918;73.504;2022-08-21T04:38:33;100643.19;;;15.23;78.94
59487;BME280;45298;54.918;73.504;2022-08-21T04:41:04;100604.78;;;15.00;79.00
59487;BME280;45298;54.918;73.504;2022-08-21T04:43:34;100588.88;;;14.85;79.82
59487;BME280;45298;54.918;73.504;2022-08-21T04:46:03;100597.75;;;14.86;80.31
59487;BME280;45298;54.918;73.504;2022-08-21T04:48:32;100648.59;;;15.10;80.73
59487;BME280;45298;54.918;73.504;2022-08-21T04:51:17;100628.63;;;14.90;81.31
59487;BME280;45298;54.918;73.504;2022-08-21T04:54:00;100595.72;;;14.63;81.90
59487;BME280;45298;54.918;73.504;2022-08-21T04:56:34;100597.53;;;14.63;82.58
59487;BME280;45298;54.918;73.504;2022-08-21T04:59:06;100656.81;;;14.94;83.33
59487;BME280;45298;54.918;73.504;2022-08-21T05:01:40;100642.19;;;14.87;83.78
59487;BME280;45298;54.918;73.504;2022-08-21T05:04:12;100615.25;;;14.64;84.33
59487;BME280;45298;54.918;73.504;2022-08-21T05:06:44;100650.09;;;14.88;84.56
59487;BME280;45298;54.918;73.504;2022-08-21T05:09:16;100604.47;;;14.65;85.10
59487;BME280;45298;54.918;73.504;2022-08-21T05:11:46;100617.31;;;14.73;85.94
59487;BME280;45298;54.918;73.504;2022-08-21T05:14:15;100657.44;;;14.98;86.08
59487;BME280;45298;54.918;73.504;2022-08-21T05:16:47;100632.59;;;14.84;85.95
59487;BME280;45298;54.918;73.504;2022-08-21T05:19:16;100649.03;;;14.91;85.93
59487;BME280;45298;54.918;73.504;2022-08-21T05:21:45;100574.38;;;14.50;85.91
59487;BME280;45298;54.918;73.504;2022-08-21T05:24:15;100632.47;;;14.86;86.27
59487;BME280;45298;54.918;73.504;2022-08-21T05:26:45;100602.66;;;14.66;86.12
59487;BME280;45298;54.918;73.504;2022-08-21T05:29:15;100646.69;;;14.99;86.48
59487;BME280;45298;54.918;73.504;2022-08-21T05:31:46;100596.91;;;14.72;86.72
59487;BME280;45298;54.918;73.504;2022-08-21T05:34:19;100612.59;;;14.77;86.97
59487;BME280;45298;54.918;73.504;2022-08-21T05:36:49;100587.81;;;14.62;86.51
59487;BME280;45298;54.918;73.504;2022-08-21T05:39:18;100643.25;;;14.97;86.52
59487;BME280;45298;54.918;73.504;2022-08-21T05:41:46;100634.91;;;14.89;86.76
59487;BME280;45298;54.918;73.504;2022-08-21T05:44:15;100642.72;;;14.92;86.96
59487;BME280;45298;54.918;73.504;2022-08-21T05:46:49;100630.44;;;14.89;86.81
59487;BME280;45298;54.918;73.504;2022-08-21T05:49:18;100585.13;;;14.62;87.07
59487;BME280;45298;54.918;73.504;2022-08-21T05:51:47;100537.75;;;14.40;86.94
59487;BME280;45298;54.918;73.504;2022-08-21T05:54:15;100604.03;;;14.85;87.12
59487;BME280;45298;54.918;73.504;2022-08-21T05:56:44;100582.47;;;14.88;88.14
59487;BME280;45298;54.918;73.504;2022-08-21T05:59:13;100636.31;;;15.32;88.49
59487;BME280;45298;54.918;73.504;2022-08-21T06:01:42;100648.16;;;15.40;87.93
59487;BME280;45298;54.918;73.504;2022-08-21T06:04:11;100620.63;;;15.27;87.87
59487;BME280;45298;54.918;73.504;2022-08-21T06:06:40;100621.78;;;15.36;87.49
59487;BME280;45298;54.918;73.504;2022-08-21T06:09:09;100594.66;;;15.29;87.79
59487;BME280;45298;54.918;73.504;2022-08-21T06:11:37;100623.59;;;15.60;87.60
59487;BME280;45298;54.918;73.504;2022-08-21T06:14:06;100609.63;;;15.56;87.48
59487;BME280;45298;54.918;73.504;2022-08-21T06:16:35;100618.78;;;15.65;87.33
59487;BME280;45298;54.918;73.504;2022-08-21T06:19:04;100614.91;;;15.69;86.76
59487;BME280;45298;54.918;73.504;2022-08-21T06:21:33;100632.72;;;15.81;86.28
59487;BME280;45298;54.918;73.504;2022-08-21T06:24:01;100608.72;;;15.80;86.90
59487;BME280;45298;54.918;73.504;2022-08-21T06:26:30;100599.53;;;15.84;85.84
59487;BME280;45298;54.918;73.504;2022-08-21T06:28:59;100624.91;;;16.02;84.50
59487;BME280;45298;54.918;73.504;2022-08-21T06:31:27;100634.28;;;16.08;84.48
59487;BME280;45298;54.918;73.504;2022-08-21T06:33:57;100608.00;;;16.02;83.92
59487;BME280;45298;54.918;73.504;2022-08-21T06:36:25;100629.50;;;16.25;84.79
59487;BME280;45298;54.918;73.504;2022-08-21T06:38:54;100608.41;;;16.20;84.64
59487;BME280;45298;54.918;73.504;2022-08-21T06:41:24;100649.63;;;16.53;85.17
59487;BME280;45298;54.918;73.504;2022-08-21T06:43:56;100559.72;;;16.04;83.17
59487;BME280;45298;54.918;73.504;2022-08-21T06:46:29;100624.28;;;16.35;83.24
59487;BME280;45298;54.918;73.504;2022-08-21T06:48:58;100633.75;;;16.39;82.82
59487;BME280;45298;54.918;73.504;2022-08-21T06:51:27;100632.56;;;16.43;83.63
59487;BME280;45298;54.918;73.504;2022-08-21T06:53:56;100624.75;;;16.40;82.52
59487;BME280;45298;54.918;73.504;2022-08-21T06:56:26;100623.31;;;16.58;82.79
59487;BME280;45298;54.918;73.504;2022-08-21T06:58:55;100604.56;;;16.58;82.20
59487;BME280;45298;54.918;73.504;2022-08-21T07:01:25;100589.13;;;16.85;82.62
59487;BME280;45298;54.918;73.504;2022-08-21T07:03:54;100616.75;;;17.31;81.39
59487;BME280;45298;54.918;73.504;2022-08-21T07:06:23;100626.38;;;17.45;80.00
59487;BME280;45298;54.918;73.504;2022-08-21T07:08:53;100605.09;;;17.53;78.53
59487;BME280;45298;54.918;73.504;2022-08-21T07:11:25;100612.44;;;17.83;79.53
59487;BME280;45298;54.918;73.504;2022-08-21T07:13:54;100626.50;;;18.08;78.44
59487;BME280;45298;54.918;73.504;2022-08-21T07:16:24;100623.50;;;17.90;78.63
59487;BME280;45298;54.918;73.504;2022-08-21T07:18:53;100622.50;;;17.70;77.93
59487;BME280;45298;54.918;73.504;2022-08-21T07:21:22;100623.25;;;17.61;77.91
59487;BME280;45298;54.918;73.504;2022-08-21T07:23:52;100614.53;;;17.36;77.54
59487;BME280;45298;54.918;73.504;2022-08-21T07:26:23;100631.13;;;17.30;78.66
59487;BME280;45298;54.918;73.504;2022-08-21T07:28:52;100536.88;;;16.79;78.71
59487;BME280;45298;54.918;73.504;2022-08-21T07:31:23;100630.03;;;17.44;78.92
59487;BME280;45298;54.918;73.504;2022-08-21T07:33:53;100618.56;;;17.30;78.93
59487;BME280;45298;54.918;73.504;2022-08-21T07:36:22;100621.38;;;17.17;79.19
59487;BME280;45298;54.918;73.504;2022-08-21T07:38:53;100624.81;;;16.97;80.22
59487;BME280;45298;54.918;73.504;2022-08-21T07:41:24;100650.75;;;16.85;80.98
59487;BME280;45298;54.918;73.504;2022-08-21T07:43:55;100635.97;;;16.45;82.09
59487;BME280;45298;54.918;73.504;2022-08-21T07:46:25;100656.78;;;16.41;83.11
59487;BME280;45298;54.918;73.504;2022-08-21T07:48:54;100659.09;;;16.35;83.57
59487;BME280;45298;54.918;73.504;2022-08-21T07:51:26;100635.81;;;16.24;84.45
59487;BME280;45298;54.918;73.504;2022-08-21T07:53:57;100621.03;;;16.07;84.75
59487;BME280;45298;54.918;73.504;2022-08-21T07:56:28;100644.88;;;16.10;85.19
59487;BME280;45298;54.918;73.504;2022-08-21T07:58:58;100623.03;;;15.92;85.27
59487;BME280;45298;54.918;73.504;2022-08-21T08:01:27;100630.97;;;15.93;85.69
59487;BME280;45298;54.918;73.504;2022-08-21T08:03:56;100667.25;;;16.09;86.35
59487;BME280;45298;54.918;73.504;2022-08-21T08:06:24;100625.53;;;15.82;86.50
59487;BME280;45298;54.918;73.504;2022-08-21T08:08:54;100646.44;;;15.77;85.80
59487;BME280;45298;54.918;73.504;2022-08-21T08:11:22;100661.25;;;15.81;86.25
59487;BME280;45298;54.918;73.504;2022-08-21T08:13:52;100665.47;;;15.72;86.69
59487;BME280;45298;54.918;73.504;2022-08-21T08:16:20;100661.47;;;15.53;86.62
59487;BME280;45298;54.918;73.504;2022-08-21T08:18:50;100654.16;;;15.44;86.94
59487;BME280;45298;54.918;73.504;2022-08-21T08:21:24;100664.09;;;15.42;87.05
59487;BME280;45298;54.918;73.504;2022-08-21T08:23:53;100656.84;;;15.31;87.74
59487;BME280;45298;54.918;73.504;2022-08-21T08:26:22;100674.19;;;15.25;88.06
59487;BME280;45298;54.918;73.504;2022-08-21T08:28:51;100656.69;;;15.08;87.90
59487;BME280;45298;54.918;73.504;2022-08-21T08:31:19;100667.03;;;15.13;87.26
59487;BME280;45298;54.918;73.504;2022-08-21T08:33:48;100684.88;;;15.25;87.46
59487;BME280;45298;54.918;73.504;2022-08-21T08:36:17;100664.69;;;15.21;87.20
59487;BME280;45298;54.918;73.504;2022-08-21T08:38:47;100627.84;;;15.01;87.29
59487;BME280;45298;54.918;73.504;2022-08-21T08:41:19;100608.44;;;14.86;87.55
59487;BME280;45298;54.918;73.504;2022-08-21T08:43:53;100669.91;;;15.23;86.84
59487;BME280;45298;54.918;73.504;2022-08-21T08:46:44;100662.56;;;15.14;86.55
59487;BME280;45298;54.918;73.504;2022-08-21T08:49:42;100707.41;;;15.34;86.86
59487;BME280;45298;54.918;73.504;2022-08-21T08:52:29;100666.53;;;15.08;86.54
59487;BME280;45298;54.918;73.504;2022-08-21T08:55:09;100678.69;;;15.12;86.77
59487;BME280;45298;54.918;73.504;2022-08-21T08:57:44;100700.03;;;15.25;86.97
59487;BME280;45298;54.918;73.504;2022-08-21T09:00:19;100668.25;;;15.09;87.13
59487;BME280;45298;54.918;73.504;2022-08-21T09:02:52;100667.28;;;15.10;86.35
59487;BME280;45298;54.918;73.504;2022-08-21T09:05:28;100682.50;;;15.21;86.36
59487;BME280;45298;54.918;73.504;2022-08-21T09:08:12;100695.06;;;15.07;86.39
59487;BME280;45298;54.918;73.504;2022-08-21T09:10:55;100695.25;;;15.04;86.62
59487;BME280;45298;54.918;73.504;2022-08-21T09:17:04;100684.69;;;14.90;86.69
59487;BME280;45298;54.918;73.504;2022-08-21T09:19:28;100667.16;;;14.60;86.32
59487;BME280;45298;54.918;73.504;2022-08-21T09:22:15;100710.53;;;14.63;86.69
59487;BME280;45298;54.918;73.504;2022-08-21T09:27:20;100695.72;;;14.32;87.01
59487;BME280;45298;54.918;73.504;2022-08-21T09:29:52;100664.31;;;14.10;87.30
59487;BME280;45298;54.918;73.504;2022-08-21T09:35:18;100679.00;;;14.02;87.26
59487;BME280;45298;54.918;73.504;2022-08-21T09:38:05;100684.78;;;14.09;87.11
59487;BME280;45298;54.918;73.504;2022-08-21T09:40:40;100685.44;;;14.13;87.08
59487;BME280;45298;54.918;73.504;2022-08-21T09:43:21;100708.44;;;14.28;86.59
59487;BME280;45298;54.918;73.504;2022-08-21T09:46:20;100690.72;;;14.27;86.21
59487;BME280;45298;54.918;73.504;2022-08-21T09:48:54;100687.38;;;14.24;85.97
59487;BME280;45298;54.918;73.504;2022-08-21T09:51:26;100708.13;;;14.33;85.85
59487;BME280;45298;54.918;73.504;2022-08-21T09:54:14;100711.38;;;14.24;85.53
59487;BME280;45298;54.918;73.504;2022-08-21T09:57:22;100717.69;;;14.23;85.31
59487;BME280;45298;54.918;73.504;2022-08-21T10:00:31;100709.63;;;13.97;84.99
59487;BME280;45298;54.918;73.504;2022-08-21T10:03:21;100720.28;;;13.97;84.64
59487;BME280;45298;54.918;73.504;2022-08-21T10:05:56;100691.28;;;13.78;84.77
59487;BME280;45298;54.918;73.504;2022-08-21T10:08:27;100704.69;;;13.90;84.54
59487;BME280;45298;54.918;73.504;2022-08-21T10:11:06;100737.53;;;14.18;84.77
59487;BME280;45298;54.918;73.504;2022-08-21T10:13:59;100734.59;;;14.36;84.81
59487;BME280;45298;54.918;73.504;2022-08-21T10:17:01;100741.69;;;14.50;83.84
59487;BME280;45298;54.918;73.504;2022-08-21T10:19:48;100744.03;;;14.55;83.50
59487;BME280;45298;54.918;73.504;2022-08-21T10:25:03;100747.75;;;14.52;83.44
59487;BME280;45298;54.918;73.504;2022-08-21T10:27:39;100745.75;;;14.56;83.12
59487;BME280;45298;54.918;73.504;2022-08-21T10:30:15;100716.25;;;14.31;82.27
59487;BME280;45298;54.918;73.504;2022-08-21T10:35:36;100689.88;;;13.99;81.94
59487;BME280;45298;54.918;73.504;2022-08-21T10:39:07;100746.94;;;14.24;82.06
59487;BME280;45298;54.918;73.504;2022-08-21T10:47:52;100707.75;;;14.12;81.12
59487;BME280;45298;54.918;73.504;2022-08-21T10:50:41;100724.16;;;14.46;81.42
59487;BME280;45298;54.918;73.504;2022-08-21T10:56:12;100711.88;;;14.56;79.59
59487;BME280;45298;54.918;73.504;2022-08-21T11:01:53;100726.69;;;14.88;79.03
59487;BME280;45298;54.918;73.504;2022-08-21T11:04:34;100743.34;;;15.04;78.01
59487;BME280;45298;54.918;73.504;2022-08-21T11:07:30;100721.97;;;14.91;76.13
59487;BME280;45298;54.918;73.504;2022-08-21T11:10:13;100735.88;;;15.09;76.35
59487;BME280;45298;54.918;73.504;2022-08-21T11:12:56;100740.38;;;15.09;74.90
59487;BME280;45298;54.918;73.504;2022-08-21T11:18:35;100747.06;;;15.40;75.35
59487;BME280;45298;54.918;73.504;2022-08-21T11:24:30;100752.44;;;15.78;74.33
59487;BME280;45298;54.918;73.504;2022-08-21T11:27:21;100729.25;;;15.65;74.21
59487;BME280;45298;54.918;73.504;2022-08-21T11:29:59;100681.34;;;15.62;73.41
59487;BME280;45298;54.918;73.504;2022-08-21T11:32:55;100734.94;;;15.98;73.84
59487;BME280;45298;54.918;73.504;2022-08-21T11:38:27;100746.78;;;15.69;73.28
59487;BME280;45298;54.918;73.504;2022-08-21T11:52:16;100778.28;;;15.14;74.48
59487;BME280;45298;54.918;73.504;2022-08-21T11:55:08;100766.53;;;14.91;74.27
59487;BME280;45298;54.918;73.504;2022-08-21T12:00:17;100788.78;;;14.64;74.40
59487;BME280;45298;54.918;73.504;2022-08-21T12:02:53;100760.00;;;14.42;74.68
59487;BME280;45298;54.918;73.504;2022-08-21T12:05:42;100716.22;;;14.04;74.39
59487;BME280;45298;54.918;73.504;2022-08-21T12:11:24;100781.69;;;14.37;73.96
59487;BME280;45298;54.918;73.504;2022-08-21T12:14:13;100777.13;;;14.25;73.69
59487;BME280;45298;54.918;73.504;2022-08-21T12:16:45;100795.41;;;14.31;73.43
59487;BME280;45298;54.918;73.504;2022-08-21T12:19:30;100745.81;;;14.01;73.28
59487;BME280;45298;54.918;73.504;2022-08-21T12:29:50;100791.94;;;14.16;71.98
59487;BME280;45298;54.918;73.504;2022-08-21T12:33:06;100794.72;;;14.14;72.58
59487;BME280;45298;54.918;73.504;2022-08-21T12:35:18;100781.88;;;14.07;72.84
59487;BME280;45298;54.918;73.504;2022-08-21T12:40:40;100776.84;;;14.02;72.35
59487;BME280;45298;54.918;73.504;2022-08-21T12:43:18;100792.34;;;14.10;72.87
59487;BME280;45298;54.918;73.504;2022-08-21T12:45:49;100812.25;;;14.18;72.90
59487;BME280;45298;54.918;73.504;2022-08-21T12:49:02;100797.47;;;14.13;72.64
59487;BME280;45298;54.918;73.504;2022-08-21T12:54:32;100789.97;;;14.05;73.43
59487;BME280;45298;54.918;73.504;2022-08-21T12:57:06;100783.34;;;13.98;72.92
59487;BME280;45298;54.918;73.504;2022-08-21T12:59:38;100788.47;;;14.01;73.02
59487;BME280;45298;54.918;73.504;2022-08-21T13:02:16;100808.56;;;14.07;72.74
59487;BME280;45298;54.918;73.504;2022-08-21T13:04:47;100802.53;;;14.03;72.99
59487;BME280;45298;54.918;73.504;2022-08-21T13:07:25;100769.38;;;13.80;71.74
59487;BME280;45298;54.918;73.504;2022-08-21T13:10:13;100748.63;;;13.56;71.14
59487;BME280;45298;54.918;73.504;2022-08-21T13:12:42;100816.59;;;13.92;71.02
59487;BME280;45298;54.918;73.504;2022-08-21T13:15:13;100782.81;;;13.64;70.83
59487;BME280;45298;54.918;73.504;2022-08-21T13:17:46;100807.84;;;13.75;70.79
59487;BME280;45298;54.918;73.504;2022-08-21T13:20:22;100815.19;;;13.72;70.32
59487;BME280;45298;54.918;73.504;2022-08-21T13:22:54;100821.84;;;13.79;69.89
59487;BME280;45298;54.918;73.504;2022-08-21T13:25:28;100818.78;;;13.71;69.50
59487;BME280;45298;54.918;73.504;2022-08-21T13:28:06;100812.13;;;13.64;69.98
59487;BME280;45298;54.918;73.504;2022-08-21T13:30:55;100823.56;;;13.66;70.01
59487;BME280;45298;54.918;73.504;2022-08-21T13:33:25;100822.78;;;13.64;70.35
59487;BME280;45298;54.918;73.504;2022-08-21T13:36:16;100822.13;;;13.60;71.23
59487;BME280;45298;54.918;73.504;2022-08-21T13:38:45;100851.44;;;13.74;70.44
59487;BME280;45298;54.918;73.504;2022-08-21T13:43:57;100828.59;;;13.56;70.24
59487;BME280;45298;54.918;73.504;2022-08-21T13:46:29;100844.09;;;13.64;70.36
59487;BME280;45298;54.918;73.504;2022-08-21T13:49:00;100831.56;;;13.51;69.62
59487;BME280;45298;54.918;73.504;2022-08-21T13:51:31;100862.13;;;13.60;69.42
59487;BME280;45298;54.918;73.504;2022-08-21T13:54:02;100830.75;;;13.35;69.61
59487;BME280;45298;54.918;73.504;2022-08-21T13:56:43;100841.84;;;13.43;69.81
59487;BME280;45298;54.918;73.504;2022-08-21T13:59:28;100825.03;;;13.26;69.36
59487;BME280;45298;54.918;73.504;2022-08-21T14:05:00;100825.50;;;13.19;69.10
59487;BME280;45298;54.918;73.504;2022-08-21T14:07:30;100858.53;;;13.30;69.31
59487;BME280;45298;54.918;73.504;2022-08-21T14:10:03;100848.63;;;13.18;69.87
59487;BME280;45298;54.918;73.504;2022-08-21T14:12:40;100829.38;;;12.98;68.61
59487;BME280;45298;54.918;73.504;2022-08-21T14:15:13;100861.25;;;13.14;68.98
59487;BME280;45298;54.918;73.504;2022-08-21T14:17:43;100832.03;;;12.98;69.21
59487;BME280;45298;54.918;73.504;2022-08-21T14:20:27;100867.25;;;13.04;69.10
59487;BME280;45298;54.918;73.504;2022-08-21T14:22:57;100835.03;;;12.78;69.63
59487;BME280;45298;54.918;73.504;2022-08-21T14:30:46;100881.09;;;12.94;68.69